sensor_id;sensor_type;location;lat;lon;timestamp;P1;durP1;ratioP1;P2;durP2;ratioP2
10479;SDS011;12789;42.610;23.040;2023-07-29T00:00:08;8.82;;;4.22;;
10479;SDS011;12789;42.610;23.040;2023-07-29T00:02:37;10.32;;;4.43;;
10479;SDS011;12789;42.610;23.040;2023-07-29T00:05:04;11.25;;;4.28;;
10479;SDS011;12789;42.610;23.040;2023-07-29T00:07:31;11.50;;;4.95;;
10479;SDS011;12789;42.610;23.040;2023-07-29T00:09:58;10.80;;;4.50;;
10479;SDS011;12789;42.610;23.040;2023-07-29T00:12:25;9.90;;;4.20;;
10479;SDS011;12789;42.610;23.040;2023-07-29T00:14:53;7.80;;;4.20;;
10479;SDS011;12789;42.610;23.040;2023-07-29T00:17:23;9.10;;;4.30;;
10479;SDS011;12789;42.610;23.040;2023-07-29T00:19:49;12.30;;;4.60;;
10479;SDS011;12789;42.610;23.040;2023-07-29T00:22:16;14.07;;;4.70;;
10479;SDS011;12789;42.610;23.040;2023-07-29T00:24:43;9.55;;;4.53;;
10479;SDS011;12789;42.610;23.040;2023-07-29T00:27:09;7.13;;;4.47;;
10479;SDS011;12789;42.610;23.040;2023-07-29T00:29:36;9.05;;;4.43;;
10479;SDS011;12789;42.610;23.040;2023-07-29T00:32:03;11.48;;;4.65;;
10479;SDS011;12789;42.610;23.040;2023-07-29T00:34:31;11.52;;;4.50;;
10479;SDS011;12789;42.610;23.040;2023-07-29T00:36:57;9.55;;;4.03;;
10479;SDS011;12789;42.610;23.040;2023-07-29T00:39:24;11.60;;;4.93;;
10479;SDS011;12789;42.610;23.040;2023-07-29T00:41:51;12.20;;;4.85;;
10479;SDS011;12789;42.610;23.040;2023-07-29T00:44:18;21.00;;;5.18;;
10479;SDS011;12789;42.610;23.040;2023-07-29T00:46:46;14.90;;;4.80;;
10479;SDS011;12789;42.610;23.040;2023-07-29T00:49:17;11.85;;;5.47;;
10479;SDS011;12789;42.610;23.040;2023-07-29T00:51:45;13.73;;;4.45;;
10479;SDS011;12789;42.610;23.040;2023-07-29T00:54:14;11.98;;;4.30;;
10479;SDS011;12789;42.610;23.040;2023-07-29T00:56:41;6.85;;;3.80;;
10479;SDS011;12789;42.610;23.040;2023-07-29T00:59:08;8.57;;;4.18;;
10479;SDS011;12789;42.610;23.040;2023-07-29T01:01:35;13.60;;;4.88;;
10479;SDS011;12789;42.610;23.040;2023-07-29T01:04:02;10.77;;;3.85;;
10479;SDS011;12789;42.610;23.040;2023-07-29T01:06:29;10.90;;;4.03;;
10479;SDS011;12789;42.610;23.040;2023-07-29T01:09:04;11.77;;;4.32;;
10479;SDS011;12789;42.610;23.040;2023-07-29T01:11:33;8.52;;;4.50;;
10479;SDS011;12789;42.610;23.040;2023-07-29T01:14:04;11.77;;;5.38;;
10479;SDS011;12789;42.610;23.040;2023-07-29T01:16:33;8.18;;;4.40;;
10479;SDS011;12789;42.610;23.040;2023-07-29T01:19:04;16.73;;;4.72;;
10479;SDS011;12789;42.610;23.040;2023-07-29T01:21:33;14.25;;;5.18;;
10479;SDS011;12789;42.610;23.040;2023-07-29T01:24:03;11.40;;;4.47;;
10479;SDS011;12789;42.610;23.040;2023-07-29T01:26:34;11.18;;;4.43;;
10479;SDS011;12789;42.610;23.040;2023-07-29T01:29:03;15.85;;;4.80;;
10479;SDS011;12789;42.610;23.040;2023-07-29T01:31:31;10.27;;;4.70;;
10479;SDS011;12789;42.610;23.040;2023-07-29T01:34:01;10.93;;;4.60;;
10479;SDS011;12789;42.610;23.040;2023-07-29T01:36:32;10.20;;;4.75;;
10479;SDS011;12789;42.610;23.040;2023-07-29T01:39:06;13.48;;;5.18;;
10479;SDS011;12789;42.610;23.040;2023-07-29T01:41:35;11.70;;;4.47;;
10479;SDS011;12789;42.610;23.040;2023-07-29T01:44:04;9.52;;;4.43;;
10479;SDS011;12789;42.610;23.040;2023-07-29T01:46:32;14.55;;;4.53;;
10479;SDS011;12789;42.610;23.040;2023-07-29T01:48:59;13.93;;;4.40;;
10479;SDS011;12789;42.610;23.040;2023-07-29T01:51:26;5.57;;;4.13;;
10479;SDS011;12789;42.610;23.040;2023-07-29T01:53:53;11.98;;;4.85;;
10479;SDS011;12789;42.610;23.040;2023-07-29T01:56:23;8.52;;;4.55;;
10479;SDS011;12789;42.610;23.040;2023-07-29T01:58:51;9.93;;;4.75;;
10479;SDS011;12789;42.610;23.040;2023-07-29T02:01:18;9.10;;;4.90;;
10479;SDS011;12789;42.610;23.040;2023-07-29T02:03:45;12.00;;;5.15;;
10479;SDS011;12789;42.610;23.040;2023-07-29T02:06:12;8.77;;;5.05;;
10479;SDS011;12789;42.610;23.040;2023-07-29T02:08:40;10.65;;;4.70;;
10479;SDS011;12789;42.610;23.040;2023-07-29T02:11:07;12.63;;;5.90;;
10479;SDS011;12789;42.610;23.040;2023-07-29T02:13:36;11.38;;;5.20;;
10479;SDS011;12789;42.610;23.040;2023-07-29T02:16:03;13.93;;;5.22;;
10479;SDS011;12789;42.610;23.040;2023-07-29T02:18:31;13.80;;;5.45;;
10479;SDS011;12789;42.610;23.040;2023-07-29T02:20:58;9.43;;;5.22;;
10479;SDS011;12789;42.610;23.040;2023-07-29T02:23:27;14.43;;;5.55;;
10479;SDS011;12789;42.610;23.040;2023-07-29T02:25:53;11.73;;;5.05;;
10479;SDS011;12789;42.610;23.040;2023-07-29T02:28:20;16.35;;;5.60;;
10479;SDS011;12789;42.610;23.040;2023-07-29T02:30:54;10.63;;;5.53;;
10479;SDS011;12789;42.610;23.040;2023-07-29T02:33:35;15.10;;;5.35;;
10479;SDS011;12789;42.610;23.040;2023-07-29T02:36:02;9.35;;;5.40;;
10479;SDS011;12789;42.610;23.040;2023-07-29T02:38:29;20.55;;;6.47;;
10479;SDS011;12789;42.610;23.040;2023-07-29T02:40:56;10.65;;;5.32;;
10479;SDS011;12789;42.610;23.040;2023-07-29T02:43:23;13.10;;;6.55;;
10479;SDS011;12789;42.610;23.040;2023-07-29T02:45:53;14.95;;;5.95;;
10479;SDS011;12789;42.610;23.040;2023-07-29T02:48:20;16.23;;;6.13;;
10479;SDS011;12789;42.610;23.040;2023-07-29T02:50:46;13.20;;;6.22;;
10479;SDS011;12789;42.610;23.040;2023-07-29T02:53:13;18.23;;;6.30;;
10479;SDS011;12789;42.610;23.040;2023-07-29T02:55:40;25.10;;;7.35;;
10479;SDS011;12789;42.610;23.040;2023-07-29T02:58:07;17.73;;;6.35;;
10479;SDS011;12789;42.610;23.040;2023-07-29T03:00:34;17.00;;;6.15;;
10479;SDS011;12789;42.610;23.040;2023-07-29T03:03:02;23.30;;;6.88;;
10479;SDS011;12789;42.610;23.040;2023-07-29T03:05:29;16.77;;;6.68;;
10479;SDS011;12789;42.610;23.040;2023-07-29T03:07:56;12.07;;;6.13;;
10479;SDS011;12789;42.610;23.040;2023-07-29T03:10:24;14.73;;;5.78;;
10479;SDS011;12789;42.610;23.040;2023-07-29T03:12:53;13.63;;;6.55;;
10479;SDS011;12789;42.610;23.040;2023-07-29T03:15:22;16.08;;;6.53;;
10479;SDS011;12789;42.610;23.040;2023-07-29T03:17:55;22.98;;;6.55;;
10479;SDS011;12789;42.610;23.040;2023-07-29T03:20:23;22.77;;;6.85;;
10479;SDS011;12789;42.610;23.040;2023-07-29T03:22:50;12.30;;;7.03;;
10479;SDS011;12789;42.610;23.040;2023-07-29T03:25:17;11.77;;;6.03;;
10479;SDS011;12789;42.610;23.040;2023-07-29T03:27:43;16.23;;;6.55;;
10479;SDS011;12789;42.610;23.040;2023-07-29T03:30:14;13.30;;;6.22;;
10479;SDS011;12789;42.610;23.040;2023-07-29T03:32:42;12.00;;;6.70;;
10479;SDS011;12789;42.610;23.040;2023-07-29T03:35:09;14.85;;;4.95;;
10479;SDS011;12789;42.610;23.040;2023-07-29T03:37:38;17.27;;;6.00;;
10479;SDS011;12789;42.610;23.040;2023-07-29T03:40:06;8.02;;;5.30;;
10479;SDS011;12789;42.610;23.040;2023-07-29T03:42:34;15.45;;;5.88;;
10479;SDS011;12789;42.610;23.040;2023-07-29T03:45:03;17.60;;;5.72;;
10479;SDS011;12789;42.610;23.040;2023-07-29T03:47:32;17.58;;;5.55;;
10479;SDS011;12789;42.610;23.040;2023-07-29T03:50:00;16.75;;;5.63;;
10479;SDS011;12789;42.610;23.040;2023-07-29T03:52:27;11.60;;;4.90;;
10479;SDS011;12789;42.610;23.040;2023-07-29T03:54:56;16.17;;;5.20;;
10479;SDS011;12789;42.610;23.040;2023-07-29T03:57:22;8.02;;;4.30;;
10479;SDS011;12789;42.610;23.040;2023-07-29T03:59:49;9.50;;;4.78;;
10479;SDS011;12789;42.610;23.040;2023-07-29T04:02:16;16.02;;;6.22;;
10479;SDS011;12789;42.610;23.040;2023-07-29T04:04:43;23.45;;;5.95;;
10479;SDS011;12789;42.610;23.040;2023-07-29T04:07:12;19.13;;;5.88;;
10479;SDS011;12789;42.610;23.040;2023-07-29T04:09:39;22.23;;;6.40;;
10479;SDS011;12789;42.610;23.040;2023-07-29T04:12:10;23.55;;;6.97;;
10479;SDS011;12789;42.610;23.040;2023-07-29T04:14:39;23.05;;;7.15;;
10479;SDS011;12789;42.610;23.040;2023-07-29T04:17:09;27.23;;;6.93;;
10479;SDS011;12789;42.610;23.040;2023-07-29T04:19:36;24.73;;;7.38;;
10479;SDS011;12789;42.610;23.040;2023-07-29T04:22:03;25.02;;;6.53;;
10479;SDS011;12789;42.610;23.040;2023-07-29T04:24:32;23.85;;;6.45;;
10479;SDS011;12789;42.610;23.040;2023-07-29T04:27:01;23.23;;;6.18;;
10479;SDS011;12789;42.610;23.040;2023-07-29T04:29:31;32.08;;;6.80;;
10479;SDS011;12789;42.610;23.040;2023-07-29T04:31:59;20.73;;;6.93;;
10479;SDS011;12789;42.610;23.040;2023-07-29T04:34:27;27.05;;;6.80;;
10479;SDS011;12789;42.610;23.040;2023-07-29T04:36:54;18.65;;;6.32;;
10479;SDS011;12789;42.610;23.040;2023-07-29T04:39:21;29.55;;;7.05;;
10479;SDS011;12789;42.610;23.040;2023-07-29T04:41:48;16.95;;;5.63;;
10479;SDS011;12789;42.610;23.040;2023-07-29T04:44:17;28.73;;;6.22;;
10479;SDS011;12789;42.610;23.040;2023-07-29T04:46:45;15.52;;;5.35;;
10479;SDS011;12789;42.610;23.040;2023-07-29T04:49:15;18.08;;;5.85;;
10479;SDS011;12789;42.610;23.040;2023-07-29T04:51:44;17.13;;;5.38;;
10479;SDS011;12789;42.610;23.040;2023-07-29T04:54:12;15.85;;;6.20;;
10479;SDS011;12789;42.610;23.040;2023-07-29T04:56:39;17.77;;;5.90;;
10479;SDS011;12789;42.610;23.040;2023-07-29T04:59:05;15.75;;;6.15;;
10479;SDS011;12789;42.610;23.040;2023-07-29T05:01:35;12.18;;;5.90;;
10479;SDS011;12789;42.610;23.040;2023-07-29T05:04:07;13.63;;;5.40;;
10479;SDS011;12789;42.610;23.040;2023-07-29T05:06:34;17.35;;;6.22;;
10479;SDS011;12789;42.610;23.040;2023-07-29T05:09:12;18.73;;;6.22;;
10479;SDS011;12789;42.610;23.040;2023-07-29T05:11:38;15.68;;;5.88;;
10479;SDS011;12789;42.610;23.040;2023-07-29T05:14:07;26.02;;;6.40;;
10479;SDS011;12789;42.610;23.040;2023-07-29T05:16:34;19.75;;;5.78;;
10479;SDS011;12789;42.610;23.040;2023-07-29T05:19:01;16.02;;;5.65;;
10479;SDS011;12789;42.610;23.040;2023-07-29T05:21:29;17.08;;;5.60;;
10479;SDS011;12789;42.610;23.040;2023-07-29T05:23:55;19.92;;;6.55;;
10479;SDS011;12789;42.610;23.040;2023-07-29T05:26:22;20.98;;;5.72;;
10479;SDS011;12789;42.610;23.040;2023-07-29T05:28:49;15.73;;;5.53;;
10479;SDS011;12789;42.610;23.040;2023-07-29T05:31:16;14.93;;;5.45;;
10479;SDS011;12789;42.610;23.040;2023-07-29T05:33:43;17.60;;;7.03;;
10479;SDS011;12789;42.610;23.040;2023-07-29T05:36:09;17.77;;;5.70;;
10479;SDS011;12789;42.610;23.040;2023-07-29T05:38:38;22.52;;;5.80;;
10479;SDS011;12789;42.610;23.040;2023-07-29T05:41:04;22.52;;;6.10;;
10479;SDS011;12789;42.610;23.040;2023-07-29T05:43:32;18.73;;;6.03;;
10479;SDS011;12789;42.610;23.040;2023-07-29T05:45:59;30.92;;;6.45;;
10479;SDS011;12789;42.610;23.040;2023-07-29T05:48:25;25.08;;;5.20;;
10479;SDS011;12789;42.610;23.040;2023-07-29T05:50:52;27.33;;;5.95;;
10479;SDS011;12789;42.610;23.040;2023-07-29T05:53:20;18.33;;;5.70;;
10479;SDS011;12789;42.610;23.040;2023-07-29T05:55:50;17.80;;;5.72;;
10479;SDS011;12789;42.610;23.040;2023-07-29T05:58:19;19.15;;;5.88;;
10479;SDS011;12789;42.610;23.040;2023-07-29T06:00:46;22.58;;;6.40;;
10479;SDS011;12789;42.610;23.040;2023-07-29T06:03:13;28.25;;;7.60;;
10479;SDS011;12789;42.610;23.040;2023-07-29T06:05:40;30.00;;;7.10;;
10479;SDS011;12789;42.610;23.040;2023-07-29T06:08:07;35.88;;;9.25;;
10479;SDS011;12789;42.610;23.040;2023-07-29T06:10:34;36.30;;;8.32;;
10479;SDS011;12789;42.610;23.040;2023-07-29T06:13:02;25.63;;;8.00;;
10479;SDS011;12789;42.610;23.040;2023-07-29T06:15:29;23.00;;;7.45;;
10479;SDS011;12789;42.610;23.040;2023-07-29T06:17:56;26.42;;;6.10;;
10479;SDS011;12789;42.610;23.040;2023-07-29T06:20:26;26.25;;;6.40;;
10479;SDS011;12789;42.610;23.040;2023-07-29T06:22:54;19.50;;;6.22;;
10479;SDS011;12789;42.610;23.040;2023-07-29T06:25:22;23.48;;;6.65;;
10479;SDS011;12789;42.610;23.040;2023-07-29T06:27:49;21.92;;;6.25;;
10479;SDS011;12789;42.610;23.040;2023-07-29T06:30:18;28.40;;;7.30;;
10479;SDS011;12789;42.610;23.040;2023-07-29T06:32:45;24.60;;;6.57;;
10479;SDS011;12789;42.610;23.040;2023-07-29T06:35:13;19.83;;;6.60;;
10479;SDS011;12789;42.610;23.040;2023-07-29T06:37:40;29.80;;;6.45;;
10479;SDS011;12789;42.610;23.040;2023-07-29T06:40:07;23.80;;;6.97;;
10479;SDS011;12789;42.610;23.040;2023-07-29T06:42:34;29.52;;;6.63;;
10479;SDS011;12789;42.610;23.040;2023-07-29T06:45:03;21.23;;;5.05;;
10479;SDS011;12789;42.610;23.040;2023-07-29T06:47:32;31.63;;;6.13;;
10479;SDS011;12789;42.610;23.040;2023-07-29T06:50:00;23.60;;;6.07;;
10479;SDS011;12789;42.610;23.040;2023-07-29T06:52:27;25.80;;;5.82;;
10479;SDS011;12789;42.610;23.040;2023-07-29T06:54:54;16.13;;;5.72;;
10479;SDS011;12789;42.610;23.040;2023-07-29T06:57:21;31.92;;;6.78;;
10479;SDS011;12789;42.610;23.040;2023-07-29T06:59:47;23.48;;;6.97;;
10479;SDS011;12789;42.610;23.040;2023-07-29T07:02:13;25.75;;;5.93;;
10479;SDS011;12789;42.610;23.040;2023-07-29T07:04:44;20.95;;;4.97;;
10479;SDS011;12789;42.610;23.040;2023-07-29T07:07:11;23.63;;;5.55;;
10479;SDS011;12789;42.610;23.040;2023-07-29T07:09:39;22.70;;;4.85;;
10479;SDS011;12789;42.610;23.040;2023-07-29T07:12:06;17.20;;;4.78;;
10479;SDS011;12789;42.610;23.040;2023-07-29T07:14:34;20.25;;;5.40;;
10479;SDS011;12789;42.610;23.040;2023-07-29T07:17:01;11.93;;;4.93;;
10479;SDS011;12789;42.610;23.040;2023-07-29T07:19:28;16.20;;;4.53;;
10479;SDS011;12789;42.610;23.040;2023-07-29T07:21:59;10.35;;;4.65;;
10479;SDS011;12789;42.610;23.040;2023-07-29T07:24:26;9.95;;;4.05;;
10479;SDS011;12789;42.610;23.040;2023-07-29T07:26:53;14.30;;;4.43;;
10479;SDS011;12789;42.610;23.040;2023-07-29T07:29:22;3.42;;;2.53;;
10479;SDS011;12789;42.610;23.040;2023-07-29T07:31:49;11.32;;;3.30;;
10479;SDS011;12789;42.610;23.040;2023-07-29T07:34:16;4.85;;;2.72;;
10479;SDS011;12789;42.610;23.040;2023-07-29T07:36:44;6.25;;;2.63;;
10479;SDS011;12789;42.610;23.040;2023-07-29T07:39:14;4.03;;;2.47;;
10479;SDS011;12789;42.610;23.040;2023-07-29T07:41:42;5.40;;;2.67;;
10479;SDS011;12789;42.610;23.040;2023-07-29T07:44:13;4.88;;;2.42;;
10479;SDS011;12789;42.610;23.040;2023-07-29T07:46:44;2.85;;;2.17;;
10479;SDS011;12789;42.610;23.040;2023-07-29T07:49:12;9.95;;;2.25;;
10479;SDS011;12789;42.610;23.040;2023-07-29T07:51:40;5.90;;;2.15;;
10479;SDS011;12789;42.610;23.040;2023-07-29T07:54:07;11.63;;;2.40;;
10479;SDS011;12789;42.610;23.040;2023-07-29T07:56:38;3.95;;;2.05;;
10479;SDS011;12789;42.610;23.040;2023-07-29T07:59:07;2.78;;;2.17;;
10479;SDS011;12789;42.610;23.040;2023-07-29T08:01:34;2.10;;;1.90;;
10479;SDS011;12789;42.610;23.040;2023-07-29T08:04:04;1.95;;;1.80;;
10479;SDS011;12789;42.610;23.040;2023-07-29T08:06:31;4.38;;;1.80;;
10479;SDS011;12789;42.610;23.040;2023-07-29T08:08:59;2.10;;;2.00;;
10479;SDS011;12789;42.610;23.040;2023-07-29T08:11:25;4.10;;;2.40;;
10479;SDS011;12789;42.610;23.040;2023-07-29T08:13:54;2.17;;;1.77;;
10479;SDS011;12789;42.610;23.040;2023-07-29T08:16:21;2.83;;;1.98;;
10479;SDS011;12789;42.610;23.040;2023-07-29T08:18:47;3.22;;;1.88;;
10479;SDS011;12789;42.610;23.040;2023-07-29T08:21:14;3.47;;;1.80;;
10479;SDS011;12789;42.610;23.040;2023-07-29T08:23:41;5.90;;;1.85;;
10479;SDS011;12789;42.610;23.040;2023-07-29T08:26:09;7.40;;;2.10;;
10479;SDS011;12789;42.610;23.040;2023-07-29T08:28:37;2.55;;;1.77;;
10479;SDS011;12789;42.610;23.040;2023-07-29T08:31:06;3.45;;;2.03;;
10479;SDS011;12789;42.610;23.040;2023-07-29T08:33:34;5.05;;;2.20;;
10479;SDS011;12789;42.610;23.040;2023-07-29T08:36:02;4.85;;;2.22;;
10479;SDS011;12789;42.610;23.040;2023-07-29T08:38:29;3.13;;;1.98;;
10479;SDS011;12789;42.610;23.040;2023-07-29T08:40:58;2.47;;;2.22;;
10479;SDS011;12789;42.610;23.040;2023-07-29T08:43:27;2.28;;;1.48;;
10479;SDS011;12789;42.610;23.040;2023-07-29T08:45:57;5.25;;;1.75;;
10479;SDS011;12789;42.610;23.040;2023-07-29T08:48:28;5.43;;;1.45;;
10479;SDS011;12789;42.610;23.040;2023-07-29T08:50:57;3.83;;;1.58;;
10479;SDS011;12789;42.610;23.040;2023-07-29T08:53:25;2.80;;;1.98;;
10479;SDS011;12789;42.610;23.040;2023-07-29T08:55:52;3.65;;;1.65;;
10479;SDS011;12789;42.610;23.040;2023-07-29T08:58:20;4.10;;;1.48;;
10479;SDS011;12789;42.610;23.040;2023-07-29T09:00:50;7.25;;;1.30;;
10479;SDS011;12789;42.610;23.040;2023-07-29T09:03:19;2.55;;;1.20;;
10479;SDS011;12789;42.610;23.040;2023-07-29T09:05:50;3.13;;;1.40;;
10479;SDS011;12789;42.610;23.040;2023-07-29T09:08:18;1.58;;;1.10;;
10479;SDS011;12789;42.610;23.040;2023-07-29T09:10:46;1.58;;;1.48;;
10479;SDS011;12789;42.610;23.040;2023-07-29T09:13:13;1.27;;;1.17;;
10479;SDS011;12789;42.610;23.040;2023-07-29T09:15:49;2.30;;;1.00;;
10479;SDS011;12789;42.610;23.040;2023-07-29T09:18:19;3.35;;;1.35;;
10479;SDS011;12789;42.610;23.040;2023-07-29T09:20:47;2.15;;;1.25;;
10479;SDS011;12789;42.610;23.040;2023-07-29T09:23:16;4.70;;;1.30;;
10479;SDS011;12789;42.610;23.040;2023-07-29T09:25:43;2.35;;;1.15;;
10479;SDS011;12789;42.610;23.040;2023-07-29T09:28:12;2.45;;;1.40;;
10479;SDS011;12789;42.610;23.040;2023-07-29T09:30:39;5.43;;;1.42;;
10479;SDS011;12789;42.610;23.040;2023-07-29T09:33:12;3.45;;;1.20;;
10479;SDS011;12789;42.610;23.040;2023-07-29T09:35:39;1.95;;;1.10;;
10479;SDS011;12789;42.610;23.040;2023-07-29T09:38:07;2.65;;;1.30;;
10479;SDS011;12789;42.610;23.040;2023-07-29T09:40:36;1.10;;;1.10;;
10479;SDS011;12789;42.610;23.040;2023-07-29T09:43:04;3.92;;;1.05;;
10479;SDS011;12789;42.610;23.040;2023-07-29T09:45:32;1.58;;;1.13;;
10479;SDS011;12789;42.610;23.040;2023-07-29T09:47:59;0.70;;;0.70;;
10479;SDS011;12789;42.610;23.040;2023-07-29T09:50:26;2.67;;;1.38;;
10479;SDS011;12789;42.610;23.040;2023-07-29T09:52:56;2.72;;;1.50;;
10479;SDS011;12789;42.610;23.040;2023-07-29T09:55:24;0.88;;;0.88;;
10479;SDS011;12789;42.610;23.040;2023-07-29T09:57:54;0.73;;;0.73;;
10479;SDS011;12789;42.610;23.040;2023-07-29T10:00:22;1.35;;;0.98;;
10479;SDS011;12789;42.610;23.040;2023-07-29T10:02:48;3.45;;;1.15;;
10479;SDS011;12789;42.610;23.040;2023-07-29T10:05:16;1.40;;;0.95;;
10479;SDS011;12789;42.610;23.040;2023-07-29T10:07:42;1.05;;;0.90;;
10479;SDS011;12789;42.610;23.040;2023-07-29T10:10:09;0.75;;;0.75;;
10479;SDS011;12789;42.610;23.040;2023-07-29T10:12:36;0.77;;;0.68;;
10479;SDS011;12789;42.610;23.040;2023-07-29T10:15:07;0.98;;;0.90;;
10479;SDS011;12789;42.610;23.040;2023-07-29T10:17:34;2.78;;;0.60;;
10479;SDS011;12789;42.610;23.040;2023-07-29T10:20:01;3.65;;;0.75;;
10479;SDS011;12789;42.610;23.040;2023-07-29T10:22:35;0.77;;;0.60;;
10479;SDS011;12789;42.610;23.040;2023-07-29T10:25:10;1.85;;;1.10;;
10479;SDS011;12789;42.610;23.040;2023-07-29T10:27:42;0.80;;;0.63;;
10479;SDS011;12789;42.610;23.040;2023-07-29T10:30:11;1.65;;;1.05;;
10479;SDS011;12789;42.610;23.040;2023-07-29T10:32:41;2.03;;;0.60;;
10479;SDS011;12789;42.610;23.040;2023-07-29T10:35:08;1.35;;;0.68;;
10479;SDS011;12789;42.610;23.040;2023-07-29T10:37:35;0.80;;;0.80;;
10479;SDS011;12789;42.610;23.040;2023-07-29T10:40:05;1.40;;;0.70;;
10479;SDS011;12789;42.610;23.040;2023-07-29T10:42:32;1.75;;;0.60;;
10479;SDS011;12789;42.610;23.040;2023-07-29T10:44:59;0.90;;;0.70;;
10479;SDS011;12789;42.610;23.040;2023-07-29T10:47:28;4.30;;;2.13;;
10479;SDS011;12789;42.610;23.040;2023-07-29T10:49:55;4.40;;;0.90;;
10479;SDS011;12789;42.610;23.040;2023-07-29T10:52:30;1.45;;;1.05;;
10479;SDS011;12789;42.610;23.040;2023-07-29T10:54:56;1.73;;;0.75;;
10479;SDS011;12789;42.610;23.040;2023-07-29T10:57:31;3.03;;;1.60;;
10479;SDS011;12789;42.610;23.040;2023-07-29T10:59:59;4.88;;;1.05;;
10479;SDS011;12789;42.610;23.040;2023-07-29T11:02:29;1.88;;;0.70;;
10479;SDS011;12789;42.610;23.040;2023-07-29T11:04:56;0.70;;;0.60;;
10479;SDS011;12789;42.610;23.040;2023-07-29T11:07:24;2.67;;;0.90;;
10479;SDS011;12789;42.610;23.040;2023-07-29T11:09:53;2.80;;;0.80;;
10479;SDS011;12789;42.610;23.040;2023-07-29T11:12:35;1.30;;;0.88;;
10479;SDS011;12789;42.610;23.040;2023-07-29T11:15:03;1.17;;;0.70;;
10479;SDS011;12789;42.610;23.040;2023-07-29T11:17:32;1.08;;;0.68;;
10479;SDS011;12789;42.610;23.040;2023-07-29T11:20:00;1.13;;;0.68;;
10479;SDS011;12789;42.610;23.040;2023-07-29T11:22:27;10.77;;;1.27;;
10479;SDS011;12789;42.610;23.040;2023-07-29T11:24:55;0.80;;;0.80;;
10479;SDS011;12789;42.610;23.040;2023-07-29T11:27:21;4.50;;;1.15;;
10479;SDS011;12789;42.610;23.040;2023-07-29T11:29:48;1.65;;;0.88;;
10479;SDS011;12789;42.610;23.040;2023-07-29T11:32:15;2.38;;;1.00;;
10479;SDS011;12789;42.610;23.040;2023-07-29T11:34:49;1.00;;;0.90;;
10479;SDS011;12789;42.610;23.040;2023-07-29T11:37:15;1.70;;;0.90;;
10479;SDS011;12789;42.610;23.040;2023-07-29T11:39:42;2.42;;;1.00;;
10479;SDS011;12789;42.610;23.040;2023-07-29T11:42:10;0.75;;;0.75;;
10479;SDS011;12789;42.610;23.040;2023-07-29T11:44:37;1.02;;;0.90;;
10479;SDS011;12789;42.610;23.040;2023-07-29T11:47:06;1.13;;;1.00;;
10479;SDS011;12789;42.610;23.040;2023-07-29T11:49:32;0.80;;;0.80;;
10479;SDS011;12789;42.610;23.040;2023-07-29T11:52:01;1.20;;;0.80;;
10479;SDS011;12789;42.610;23.040;2023-07-29T11:54:28;1.40;;;1.10;;
10479;SDS011;12789;42.610;23.040;2023-07-29T11:56:55;6.70;;;2.10;;
10479;SDS011;12789;42.610;23.040;2023-07-29T11:59:22;1.55;;;1.05;;
10479;SDS011;12789;42.610;23.040;2023-07-29T12:01:49;2.92;;;1.20;;
10479;SDS011;12789;42.610;23.040;2023-07-29T12:04:18;1.05;;;0.95;;
10479;SDS011;12789;42.610;23.040;2023-07-29T12:06:46;1.02;;;1.02;;
10479;SDS011;12789;42.610;23.040;2023-07-29T12:09:14;4.50;;;1.33;;
10479;SDS011;12789;42.610;23.040;2023-07-29T12:11:41;1.20;;;1.05;;
10479;SDS011;12789;42.610;23.040;2023-07-29T12:14:07;1.48;;;1.17;;
10479;SDS011;12789;42.610;23.040;2023-07-29T12:16:40;6.18;;;1.25;;
10479;SDS011;12789;42.610;23.040;2023-07-29T12:19:07;2.35;;;1.23;;
10479;SDS011;12789;42.610;23.040;2023-07-29T12:21:34;1.25;;;1.15;;
10479;SDS011;12789;42.610;23.040;2023-07-29T12:24:02;2.15;;;1.20;;
10479;SDS011;12789;42.610;23.040;2023-07-29T12:26:31;1.98;;;1.13;;
10479;SDS011;12789;42.610;23.040;2023-07-29T12:28:57;3.45;;;1.02;;
10479;SDS011;12789;42.610;23.040;2023-07-29T12:31:30;1.48;;;1.13;;
10479;SDS011;12789;42.610;23.040;2023-07-29T12:33:57;1.10;;;1.10;;
10479;SDS011;12789;42.610;23.040;2023-07-29T12:36:27;1.92;;;1.20;;
10479;SDS011;12789;42.610;23.040;2023-07-29T12:38:54;1.00;;;0.90;;
10479;SDS011;12789;42.610;23.040;2023-07-29T12:41:25;1.45;;;1.17;;
10479;SDS011;12789;42.610;23.040;2023-07-29T12:43:56;1.67;;;1.00;;
10479;SDS011;12789;42.610;23.040;2023-07-29T12:46:22;2.33;;;1.10;;
10479;SDS011;12789;42.610;23.040;2023-07-29T12:48:55;1.33;;;0.88;;
10479;SDS011;12789;42.610;23.040;2023-07-29T12:51:23;1.05;;;0.95;;
10479;SDS011;12789;42.610;23.040;2023-07-29T12:53:50;0.80;;;0.80;;
10479;SDS011;12789;42.610;23.040;2023-07-29T12:56:16;1.45;;;0.90;;
10479;SDS011;12789;42.610;23.040;2023-07-29T12:58:44;1.08;;;1.00;;
10479;SDS011;12789;42.610;23.040;2023-07-29T13:01:16;0.90;;;0.90;;
10479;SDS011;12789;42.610;23.040;2023-07-29T13:03:44;0.88;;;0.88;;
10479;SDS011;12789;42.610;23.040;2023-07-29T13:06:11;1.00;;;0.90;;
10479;SDS011;12789;42.610;23.040;2023-07-29T13:08:38;0.80;;;0.80;;
10479;SDS011;12789;42.610;23.040;2023-07-29T13:11:06;9.55;;;1.48;;
10479;SDS011;12789;42.610;23.040;2023-07-29T13:13:33;6.93;;;1.40;;
10479;SDS011;12789;42.610;23.040;2023-07-29T13:16:03;3.58;;;1.10;;
10479;SDS011;12789;42.610;23.040;2023-07-29T13:18:32;1.17;;;1.00;;
10479;SDS011;12789;42.610;23.040;2023-07-29T13:20:59;4.57;;;0.95;;
10479;SDS011;12789;42.610;23.040;2023-07-29T13:23:26;3.22;;;1.00;;
10479;SDS011;12789;42.610;23.040;2023-07-29T13:25:54;1.55;;;0.93;;
10479;SDS011;12789;42.610;23.040;2023-07-29T13:28:21;0.57;;;0.57;;
10479;SDS011;12789;42.610;23.040;2023-07-29T13:30:48;2.95;;;0.90;;
10479;SDS011;12789;42.610;23.040;2023-07-29T13:33:15;1.85;;;0.70;;
10479;SDS011;12789;42.610;23.040;2023-07-29T13:35:43;0.90;;;0.90;;
10479;SDS011;12789;42.610;23.040;2023-07-29T13:38:10;2.42;;;0.98;;
10479;SDS011;12789;42.610;23.040;2023-07-29T13:40:37;2.42;;;0.98;;
10479;SDS011;12789;42.610;23.040;2023-07-29T13:43:04;6.13;;;1.27;;
10479;SDS011;12789;42.610;23.040;2023-07-29T13:45:30;1.10;;;1.00;;
10479;SDS011;12789;42.610;23.040;2023-07-29T13:47:57;0.82;;;0.82;;
10479;SDS011;12789;42.610;23.040;2023-07-29T13:50:26;0.90;;;0.90;;
10479;SDS011;12789;42.610;23.040;2023-07-29T13:52:55;3.63;;;0.90;;
10479;SDS011;12789;42.610;23.040;2023-07-29T13:55:24;1.25;;;0.82;;
10479;SDS011;12789;42.610;23.040;2023-07-29T13:57:51;0.90;;;0.90;;
10479;SDS011;12789;42.610;23.040;2023-07-29T14:00:18;2.53;;;0.82;;
10479;SDS011;12789;42.610;23.040;2023-07-29T14:02:45;1.75;;;0.90;;
10479;SDS011;12789;42.610;23.040;2023-07-29T14:05:12;1.02;;;0.77;;
10479;SDS011;12789;42.610;23.040;2023-07-29T14:07:39;0.80;;;0.80;;
10479;SDS011;12789;42.610;23.040;2023-07-29T14:10:08;1.88;;;1.00;;
10479;SDS011;12789;42.610;23.040;2023-07-29T14:12:35;1.10;;;1.00;;
10479;SDS011;12789;42.610;23.040;2023-07-29T14:15:04;1.40;;;1.30;;
10479;SDS011;12789;42.610;23.040;2023-07-29T14:17:31;2.97;;;1.33;;
10479;SDS011;12789;42.610;23.040;2023-07-29T14:19:58;1.17;;;1.17;;
10479;SDS011;12789;42.610;23.040;2023-07-29T14:22:24;1.52;;;1.40;;
10479;SDS011;12789;42.610;23.040;2023-07-29T14:24:52;1.27;;;1.17;;
10479;SDS011;12789;42.610;23.040;2023-07-29T14:27:20;1.27;;;1.17;;
10479;SDS011;12789;42.610;23.040;2023-07-29T14:29:47;1.30;;;1.20;;
10479;SDS011;12789;42.610;23.040;2023-07-29T14:32:15;1.13;;;1.02;;